Hlavní strana
METAR-TAF:

METAR-TAF

Letiště :

Pskov, Rusko

zeměpisná šířka: 57-47-06N, zeměpisná délka: 028-23-54E, výška: 47 m

Aktuální stav počasí

Zpráva byla vytvořena před 36 minutami, v 18:00 UTC
Jižní vítr 4 kt, proměnlivý mezi jihojihovýchodním a jihozápadním
Teplota -8°C
Vlhkost vzduchu 92%
Tlak 1017 hPa
Viditelnost 10 km a více

METAR: ULOO 181800Z AUTO 18002MPS 160V230 9999 // M08/M09 Q1017 RMK QFE758

Čas: 21:36 (18:36 UTC)

Předpověď počasí

Zpráva byla vytvořena před 1 hodinou a 42 minutami, v 16:54 UTC
Předpověď platná od 18 v 18 UTC do 19 v 03 UTC
Jihojihozápadní vítr 6 kt
Viditelnost: 6000 m
Dočasný
od 18 v 18 UTC do 19 v 03 UTC
Viditelnost: 3100 m
Polojasno ve výšce 500 ft
Polojasno ve výšce 1600 ft
Oblačno až skoro zataženo ve výšce 3000 ft
slabé sněžení, kouřmo

TAF: ULOO 181654Z 1818/1903 20003MPS 6000 NSC TEMPO 1818/1903 3100 -SN BR SCT005 SCT016 BKN030

Stav a předpovědi počasí z více než 4 000 letišť (zprávy METAR a TAF).

Červené a žluté tečky na mapě představují dostupné meteorologické stanice.

Když kurzor umístíte na tečku, zobrazí se název stanice.

Pak kliknutím zobrazíte stav a předpověď počasí.

Chcete-li změnit mapu, kliknutím na zelené tlačítko se znaménkem +mapu přiblížíte, kliknutím na zelené tlačítko se znaménkem – mapu oddálíte a kliknutím na zelené šipky přejdete na sousední mapy.


METAR-TAF: